This is the latest recevied weather packets stored in our database for station/object DL8TF-13. If no packets are shown the sender has not sent any weather packets the latest 10 day(s).
| Time | Temp. | Humidity | Pressure | Rain* | Wind** | Luminosity | Snow |
|---|---|---|---|---|---|---|---|
| 1777551802 | 30° C | 7% | 993 hPa | - | - | - | - |
| 1777551202 | 31.67° C | 7% | 993 hPa | - | - | - | - |
| 1777550602 | 31.11° C | 8% | 993 hPa | - | - | - | - |
| 1777550002 | 28.89° C | 9% | 994 hPa | - | - | - | - |
| 1777549401 | 29.44° C | 9% | 994 hPa | - | - | - | - |
| 1777548801 | 26.11° C | 10% | 994 hPa | - | - | - | - |
| 1777548201 | 21.67° C | 14% | 994 hPa | - | - | - | - |
| 1777547601 | 18.33° C | 19% | 994 hPa | - | - | - | - |
| 1777547001 | 17.22° C | 20% | 994 hPa | - | - | - | - |
| 1777546401 | 16.11° C | 23% | 994 hPa | - | - | - | - |
| 1777545801 | 15° C | 22% | 994 hPa | - | - | - | - |
| 1777545201 | 15° C | 20% | 994 hPa | - | - | - | - |
| 1777544601 | 15° C | 23% | 994 hPa | - | - | - | - |
| 1777544001 | 14.44° C | 22% | 994 hPa | - | - | - | - |
| 1777543401 | 13.89° C | 22% | 994 hPa | - | - | - | - |
| 1777542801 | 13.89° C | 21% | 994 hPa | - | - | - | - |
| 1777542201 | 13.89° C | 23% | 995 hPa | - | - | - | - |
| 1777541601 | 13.33° C | 22% | 994 hPa | - | - | - | - |
| 1777541001 | 13.33° C | 23% | 994 hPa | - | - | - | - |
| 1777540401 | 13.33° C | 22% | 995 hPa | - | - | - | - |
| 1777539800 | 12.78° C | 25% | 995 hPa | - | - | - | - |
| 1777539200 | 12.78° C | 24% | 995 hPa | - | - | - | - |
| 1777538600 | 12.78° C | 26% | 995 hPa | - | - | - | - |
| 1777538000 | 12.22° C | 26% | 995 hPa | - | - | - | - |
| 1777537400 | 12.22° C | 26% | 995 hPa | - | - | - | - |
* Rain since midnight (hover to see other rain measurements)
** Current wind speed in m/s (hover to see current wind gust speed)